sensor_id;sensor_type;location;lat;lon;timestamp;temperature;humidity
75615;DHT22;64199;48.578;-4.520;2023-06-14T00:01:11;24.20;67.40
75615;DHT22;64199;48.578;-4.520;2023-06-14T00:03:39;24.20;67.40
75615;DHT22;64199;48.578;-4.520;2023-06-14T00:06:05;24.20;67.50
75615;DHT22;64199;48.578;-4.520;2023-06-14T00:08:31;24.10;67.30
75615;DHT22;64199;48.578;-4.520;2023-06-14T00:10:58;24.10;67.20
75615;DHT22;64199;48.578;-4.520;2023-06-14T00:13:24;24.10;67.10
75615;DHT22;64199;48.578;-4.520;2023-06-14T00:15:50;24.20;67.10
75615;DHT22;64199;48.578;-4.520;2023-06-14T00:18:21;24.10;67.00
75615;DHT22;64199;48.578;-4.520;2023-06-14T00:20:51;24.10;67.00
75615;DHT22;64199;48.578;-4.520;2023-06-14T00:23:20;24.10;67.10
75615;DHT22;64199;48.578;-4.520;2023-06-14T00:25:47;24.10;67.10
75615;DHT22;64199;48.578;-4.520;2023-06-14T00:28:13;24.10;67.10
75615;DHT22;64199;48.578;-4.520;2023-06-14T00:30:40;24.10;67.00
75615;DHT22;64199;48.578;-4.520;2023-06-14T00:33:06;24.10;67.10
75615;DHT22;64199;48.578;-4.520;2023-06-14T00:35:32;24.10;67.00
75615;DHT22;64199;48.578;-4.520;2023-06-14T00:37:58;24.10;67.10
75615;DHT22;64199;48.578;-4.520;2023-06-14T00:40:25;24.10;67.40
75615;DHT22;64199;48.578;-4.520;2023-06-14T00:42:50;24.10;67.00
75615;DHT22;64199;48.578;-4.520;2023-06-14T00:45:17;24.10;67.00
75615;DHT22;64199;48.578;-4.520;2023-06-14T00:47:43;24.10;67.00
75615;DHT22;64199;48.578;-4.520;2023-06-14T00:50:11;24.10;67.00
75615;DHT22;64199;48.578;-4.520;2023-06-14T00:52:39;24.10;67.10
75615;DHT22;64199;48.578;-4.520;2023-06-14T00:55:06;24.10;67.10
75615;DHT22;64199;48.578;-4.520;2023-06-14T00:57:32;24.10;67.10
75615;DHT22;64199;48.578;-4.520;2023-06-14T00:59:58;24.10;67.10
75615;DHT22;64199;48.578;-4.520;2023-06-14T01:02:25;24.10;67.10
75615;DHT22;64199;48.578;-4.520;2023-06-14T01:04:52;24.10;67.10
75615;DHT22;64199;48.578;-4.520;2023-06-14T01:08:05;24.10;67.10
75615;DHT22;64199;48.578;-4.520;2023-06-14T01:13:20;24.10;67.00
75615;DHT22;64199;48.578;-4.520;2023-06-14T01:15:48;24.10;67.10
75615;DHT22;64199;48.578;-4.520;2023-06-14T01:18:16;24.00;67.00
75615;DHT22;64199;48.578;-4.520;2023-06-14T01:20:46;24.10;67.10
75615;DHT22;64199;48.578;-4.520;2023-06-14T01:23:19;24.10;67.20
75615;DHT22;64199;48.578;-4.520;2023-06-14T01:25:46;24.10;67.10
75615;DHT22;64199;48.578;-4.520;2023-06-14T01:28:15;24.10;67.10
75615;DHT22;64199;48.578;-4.520;2023-06-14T01:30:44;24.10;67.10
75615;DHT22;64199;48.578;-4.520;2023-06-14T01:33:15;24.10;67.00
75615;DHT22;64199;48.578;-4.520;2023-06-14T01:35:43;24.10;67.00
75615;DHT22;64199;48.578;-4.520;2023-06-14T01:38:09;24.10;67.00
75615;DHT22;64199;48.578;-4.520;2023-06-14T01:40:36;24.00;66.90
75615;DHT22;64199;48.578;-4.520;2023-06-14T01:43:03;24.00;67.00
75615;DHT22;64199;48.578;-4.520;2023-06-14T01:45:30;24.00;67.00
75615;DHT22;64199;48.578;-4.520;2023-06-14T01:47:57;24.00;67.00
75615;DHT22;64199;48.578;-4.520;2023-06-14T01:50:23;24.00;66.90
75615;DHT22;64199;48.578;-4.520;2023-06-14T01:52:49;24.10;67.00
75615;DHT22;64199;48.578;-4.520;2023-06-14T01:55:15;24.00;66.90
75615;DHT22;64199;48.578;-4.520;2023-06-14T01:57:43;24.10;66.90
75615;DHT22;64199;48.578;-4.520;2023-06-14T02:00:09;24.10;66.90
75615;DHT22;64199;48.578;-4.520;2023-06-14T02:02:38;24.10;66.90
75615;DHT22;64199;48.578;-4.520;2023-06-14T02:05:04;24.00;66.80
75615;DHT22;64199;48.578;-4.520;2023-06-14T02:07:30;24.00;66.80
75615;DHT22;64199;48.578;-4.520;2023-06-14T02:09:56;24.00;66.80
75615;DHT22;64199;48.578;-4.520;2023-06-14T02:12:22;24.10;66.90
75615;DHT22;64199;48.578;-4.520;2023-06-14T02:14:48;24.10;66.90
75615;DHT22;64199;48.578;-4.520;2023-06-14T02:17:14;24.10;66.90
75615;DHT22;64199;48.578;-4.520;2023-06-14T02:19:41;24.10;66.90
75615;DHT22;64199;48.578;-4.520;2023-06-14T02:22:07;24.00;66.80
75615;DHT22;64199;48.578;-4.520;2023-06-14T02:24:33;24.00;66.80
75615;DHT22;64199;48.578;-4.520;2023-06-14T02:26:59;24.00;66.80
75615;DHT22;64199;48.578;-4.520;2023-06-14T02:29:25;24.00;66.80
75615;DHT22;64199;48.578;-4.520;2023-06-14T02:31:51;24.00;66.80
75615;DHT22;64199;48.578;-4.520;2023-06-14T02:34:17;24.00;66.80
75615;DHT22;64199;48.578;-4.520;2023-06-14T02:37:03;24.00;66.90
75615;DHT22;64199;48.578;-4.520;2023-06-14T02:39:29;24.00;66.80
75615;DHT22;64199;48.578;-4.520;2023-06-14T02:41:55;24.00;66.90
75615;DHT22;64199;48.578;-4.520;2023-06-14T02:44:25;24.00;66.90
75615;DHT22;64199;48.578;-4.520;2023-06-14T02:46:54;24.00;66.80
75615;DHT22;64199;48.578;-4.520;2023-06-14T02:49:22;24.00;66.80
75615;DHT22;64199;48.578;-4.520;2023-06-14T02:51:48;24.00;66.70
75615;DHT22;64199;48.578;-4.520;2023-06-14T02:54:14;24.00;66.70
75615;DHT22;64199;48.578;-4.520;2023-06-14T02:56:40;24.00;66.70
75615;DHT22;64199;48.578;-4.520;2023-06-14T02:59:06;24.00;66.80
75615;DHT22;64199;48.578;-4.520;2023-06-14T03:01:33;24.00;66.70
75615;DHT22;64199;48.578;-4.520;2023-06-14T03:04:07;24.00;66.80
75615;DHT22;64199;48.578;-4.520;2023-06-14T03:06:34;24.00;66.80
75615;DHT22;64199;48.578;-4.520;2023-06-14T03:09:01;24.00;66.70
75615;DHT22;64199;48.578;-4.520;2023-06-14T03:11:30;23.90;66.70
75615;DHT22;64199;48.578;-4.520;2023-06-14T03:13:56;23.90;66.70
75615;DHT22;64199;48.578;-4.520;2023-06-14T03:16:22;24.00;66.70
75615;DHT22;64199;48.578;-4.520;2023-06-14T03:18:53;24.00;66.70
75615;DHT22;64199;48.578;-4.520;2023-06-14T03:21:19;23.90;66.70
75615;DHT22;64199;48.578;-4.520;2023-06-14T03:23:48;23.90;66.70
75615;DHT22;64199;48.578;-4.520;2023-06-14T03:26:15;23.90;66.70
75615;DHT22;64199;48.578;-4.520;2023-06-14T03:28:46;23.90;66.70
75615;DHT22;64199;48.578;-4.520;2023-06-14T03:31:13;23.90;66.70
75615;DHT22;64199;48.578;-4.520;2023-06-14T03:33:39;23.90;66.70
75615;DHT22;64199;48.578;-4.520;2023-06-14T03:36:06;23.90;66.70
75615;DHT22;64199;48.578;-4.520;2023-06-14T03:38:35;23.90;66.70
75615;DHT22;64199;48.578;-4.520;2023-06-14T03:41:01;23.90;66.70
75615;DHT22;64199;48.578;-4.520;2023-06-14T03:43:27;23.90;66.70
75615;DHT22;64199;48.578;-4.520;2023-06-14T03:45:53;23.90;67.50
75615;DHT22;64199;48.578;-4.520;2023-06-14T03:48:19;23.90;66.80
75615;DHT22;64199;48.578;-4.520;2023-06-14T03:50:45;23.90;66.70
75615;DHT22;64199;48.578;-4.520;2023-06-14T03:53:11;23.90;66.70
75615;DHT22;64199;48.578;-4.520;2023-06-14T03:55:37;23.90;66.70
75615;DHT22;64199;48.578;-4.520;2023-06-14T03:58:03;23.80;66.70
75615;DHT22;64199;48.578;-4.520;2023-06-14T04:00:29;23.90;66.80
75615;DHT22;64199;48.578;-4.520;2023-06-14T04:02:55;23.90;66.70
75615;DHT22;64199;48.578;-4.520;2023-06-14T04:05:21;23.90;66.70
75615;DHT22;64199;48.578;-4.520;2023-06-14T04:07:47;23.90;66.70
75615;DHT22;64199;48.578;-4.520;2023-06-14T04:10:15;23.80;66.70
75615;DHT22;64199;48.578;-4.520;2023-06-14T04:12:41;23.80;66.70
75615;DHT22;64199;48.578;-4.520;2023-06-14T04:15:08;23.90;66.80
75615;DHT22;64199;48.578;-4.520;2023-06-14T04:17:35;23.80;66.80
75615;DHT22;64199;48.578;-4.520;2023-06-14T04:20:01;23.80;66.80
75615;DHT22;64199;48.578;-4.520;2023-06-14T04:22:29;23.80;66.80
75615;DHT22;64199;48.578;-4.520;2023-06-14T04:24:56;23.80;66.80
75615;DHT22;64199;48.578;-4.520;2023-06-14T04:27:23;23.80;66.90
75615;DHT22;64199;48.578;-4.520;2023-06-14T04:29:51;23.80;66.90
75615;DHT22;64199;48.578;-4.520;2023-06-14T04:32:26;23.80;66.90
75615;DHT22;64199;48.578;-4.520;2023-06-14T04:34:56;23.80;67.00
75615;DHT22;64199;48.578;-4.520;2023-06-14T04:37:22;23.80;67.10
75615;DHT22;64199;48.578;-4.520;2023-06-14T04:39:48;23.80;67.10
75615;DHT22;64199;48.578;-4.520;2023-06-14T04:42:16;23.80;67.10
75615;DHT22;64199;48.578;-4.520;2023-06-14T04:44:45;23.80;67.10
75615;DHT22;64199;48.578;-4.520;2023-06-14T04:47:13;23.70;67.10
75615;DHT22;64199;48.578;-4.520;2023-06-14T04:49:40;23.80;67.10
75615;DHT22;64199;48.578;-4.520;2023-06-14T04:52:07;23.80;67.10
75615;DHT22;64199;48.578;-4.520;2023-06-14T04:54:33;23.80;67.10
75615;DHT22;64199;48.578;-4.520;2023-06-14T04:56:59;23.70;67.10
75615;DHT22;64199;48.578;-4.520;2023-06-14T04:59:25;23.70;67.10
75615;DHT22;64199;48.578;-4.520;2023-06-14T05:01:51;23.70;67.10
75615;DHT22;64199;48.578;-4.520;2023-06-14T05:04:19;23.70;67.10
75615;DHT22;64199;48.578;-4.520;2023-06-14T05:06:46;23.70;67.00
75615;DHT22;64199;48.578;-4.520;2023-06-14T05:09:15;23.70;67.00
75615;DHT22;64199;48.578;-4.520;2023-06-14T05:11:44;23.70;67.00
75615;DHT22;64199;48.578;-4.520;2023-06-14T05:14:13;23.70;67.10
75615;DHT22;64199;48.578;-4.520;2023-06-14T05:16:38;23.70;67.20
75615;DHT22;64199;48.578;-4.520;2023-06-14T05:19:04;23.70;67.20
75615;DHT22;64199;48.578;-4.520;2023-06-14T05:21:31;23.70;68.00
75615;DHT22;64199;48.578;-4.520;2023-06-14T05:23:59;23.70;67.20
75615;DHT22;64199;48.578;-4.520;2023-06-14T05:26:25;23.60;67.20
75615;DHT22;64199;48.578;-4.520;2023-06-14T05:28:57;23.70;67.20
75615;DHT22;64199;48.578;-4.520;2023-06-14T05:31:24;23.70;67.30
75615;DHT22;64199;48.578;-4.520;2023-06-14T05:33:52;23.70;67.20
75615;DHT22;64199;48.578;-4.520;2023-06-14T05:36:19;23.60;67.20
75615;DHT22;64199;48.578;-4.520;2023-06-14T05:38:45;23.70;67.20
75615;DHT22;64199;48.578;-4.520;2023-06-14T05:41:11;23.60;67.20
75615;DHT22;64199;48.578;-4.520;2023-06-14T05:43:37;23.70;67.20
75615;DHT22;64199;48.578;-4.520;2023-06-14T05:46:03;23.60;67.20
75615;DHT22;64199;48.578;-4.520;2023-06-14T05:48:30;23.60;67.20
75615;DHT22;64199;48.578;-4.520;2023-06-14T05:50:56;23.70;67.20
75615;DHT22;64199;48.578;-4.520;2023-06-14T05:53:22;23.60;67.10
75615;DHT22;64199;48.578;-4.520;2023-06-14T05:55:48;23.60;67.10
75615;DHT22;64199;48.578;-4.520;2023-06-14T05:58:14;23.60;67.10
75615;DHT22;64199;48.578;-4.520;2023-06-14T06:00:40;23.60;67.10
75615;DHT22;64199;48.578;-4.520;2023-06-14T06:03:06;23.60;67.10
75615;DHT22;64199;48.578;-4.520;2023-06-14T06:05:34;23.60;67.10
75615;DHT22;64199;48.578;-4.520;2023-06-14T06:08:00;23.60;67.10
75615;DHT22;64199;48.578;-4.520;2023-06-14T06:10:26;23.60;67.10
75615;DHT22;64199;48.578;-4.520;2023-06-14T06:12:52;23.60;67.10
75615;DHT22;64199;48.578;-4.520;2023-06-14T06:15:20;23.60;67.10
75615;DHT22;64199;48.578;-4.520;2023-06-14T06:17:46;23.60;67.20
75615;DHT22;64199;48.578;-4.520;2023-06-14T06:20:12;23.60;67.10
75615;DHT22;64199;48.578;-4.520;2023-06-14T06:22:38;23.60;67.10
75615;DHT22;64199;48.578;-4.520;2023-06-14T06:25:05;23.50;67.10
75615;DHT22;64199;48.578;-4.520;2023-06-14T06:27:32;23.60;67.20
75615;DHT22;64199;48.578;-4.520;2023-06-14T06:29:58;23.60;67.10
75615;DHT22;64199;48.578;-4.520;2023-06-14T06:32:23;23.60;67.10
75615;DHT22;64199;48.578;-4.520;2023-06-14T06:34:50;23.60;67.20
75615;DHT22;64199;48.578;-4.520;2023-06-14T06:37:17;23.60;67.20
75615;DHT22;64199;48.578;-4.520;2023-06-14T06:39:43;23.50;67.10
75615;DHT22;64199;48.578;-4.520;2023-06-14T06:42:09;23.60;67.20
75615;DHT22;64199;48.578;-4.520;2023-06-14T06:44:36;23.60;67.20
75615;DHT22;64199;48.578;-4.520;2023-06-14T06:47:02;23.60;67.30
75615;DHT22;64199;48.578;-4.520;2023-06-14T06:49:28;23.60;67.30
75615;DHT22;64199;48.578;-4.520;2023-06-14T06:52:04;23.50;67.20
75615;DHT22;64199;48.578;-4.520;2023-06-14T06:54:32;23.50;67.20
75615;DHT22;64199;48.578;-4.520;2023-06-14T06:56:59;23.50;67.30
75615;DHT22;64199;48.578;-4.520;2023-06-14T06:59:27;23.50;67.20
75615;DHT22;64199;48.578;-4.520;2023-06-14T07:01:53;23.50;67.30
75615;DHT22;64199;48.578;-4.520;2023-06-14T07:04:19;23.50;67.30
75615;DHT22;64199;48.578;-4.520;2023-06-14T07:06:46;23.60;67.30
75615;DHT22;64199;48.578;-4.520;2023-06-14T07:09:13;23.50;67.40
75615;DHT22;64199;48.578;-4.520;2023-06-14T07:11:40;23.50;67.30
75615;DHT22;64199;48.578;-4.520;2023-06-14T07:14:07;23.50;67.30
75615;DHT22;64199;48.578;-4.520;2023-06-14T07:16:33;23.50;67.30
75615;DHT22;64199;48.578;-4.520;2023-06-14T07:18:59;23.50;67.30
75615;DHT22;64199;48.578;-4.520;2023-06-14T07:21:26;23.50;67.30
75615;DHT22;64199;48.578;-4.520;2023-06-14T07:23:53;23.50;67.30
75615;DHT22;64199;48.578;-4.520;2023-06-14T07:26:19;23.50;67.30
75615;DHT22;64199;48.578;-4.520;2023-06-14T07:28:46;23.50;67.30
75615;DHT22;64199;48.578;-4.520;2023-06-14T07:31:13;23.50;67.30
75615;DHT22;64199;48.578;-4.520;2023-06-14T07:33:40;23.50;67.30
75615;DHT22;64199;48.578;-4.520;2023-06-14T07:36:06;23.50;67.30
75615;DHT22;64199;48.578;-4.520;2023-06-14T07:38:32;23.50;67.20
75615;DHT22;64199;48.578;-4.520;2023-06-14T07:40:57;23.50;67.20
75615;DHT22;64199;48.578;-4.520;2023-06-14T07:43:24;23.50;67.20
75615;DHT22;64199;48.578;-4.520;2023-06-14T07:45:49;23.50;67.10
75615;DHT22;64199;48.578;-4.520;2023-06-14T07:48:15;23.50;67.20
75615;DHT22;64199;48.578;-4.520;2023-06-14T07:50:41;23.50;67.10
75615;DHT22;64199;48.578;-4.520;2023-06-14T07:53:07;23.50;67.20
75615;DHT22;64199;48.578;-4.520;2023-06-14T07:55:33;23.50;67.10
75615;DHT22;64199;48.578;-4.520;2023-06-14T07:58:08;23.50;67.20
75615;DHT22;64199;48.578;-4.520;2023-06-14T08:00:34;23.40;67.20
75615;DHT22;64199;48.578;-4.520;2023-06-14T08:03:00;23.40;67.10
75615;DHT22;64199;48.578;-4.520;2023-06-14T08:05:27;23.50;67.20
75615;DHT22;64199;48.578;-4.520;2023-06-14T08:07:54;23.50;67.30
75615;DHT22;64199;48.578;-4.520;2023-06-14T08:10:22;23.40;67.20
75615;DHT22;64199;48.578;-4.520;2023-06-14T08:12:48;23.50;67.30
75615;DHT22;64199;48.578;-4.520;2023-06-14T08:15:16;23.50;67.40
75615;DHT22;64199;48.578;-4.520;2023-06-14T08:17:45;23.50;67.40
75615;DHT22;64199;48.578;-4.520;2023-06-14T08:20:12;23.50;67.40
75615;DHT22;64199;48.578;-4.520;2023-06-14T08:22:42;23.50;67.40
75615;DHT22;64199;48.578;-4.520;2023-06-14T08:25:09;23.50;67.30
75615;DHT22;64199;48.578;-4.520;2023-06-14T08:27:38;23.50;67.40
75615;DHT22;64199;48.578;-4.520;2023-06-14T08:30:04;23.50;67.40
75615;DHT22;64199;48.578;-4.520;2023-06-14T08:32:29;23.50;67.40
75615;DHT22;64199;48.578;-4.520;2023-06-14T08:34:56;23.40;67.40
75615;DHT22;64199;48.578;-4.520;2023-06-14T08:37:22;23.50;67.50
75615;DHT22;64199;48.578;-4.520;2023-06-14T08:39:48;23.50;67.50
75615;DHT22;64199;48.578;-4.520;2023-06-14T08:42:14;23.50;67.50
75615;DHT22;64199;48.578;-4.520;2023-06-14T08:44:43;23.50;67.50
75615;DHT22;64199;48.578;-4.520;2023-06-14T08:47:09;23.50;67.60
75615;DHT22;64199;48.578;-4.520;2023-06-14T08:49:38;23.50;67.60
75615;DHT22;64199;48.578;-4.520;2023-06-14T08:52:08;23.40;67.50
75615;DHT22;64199;48.578;-4.520;2023-06-14T08:54:36;23.50;67.60
75615;DHT22;64199;48.578;-4.520;2023-06-14T08:57:11;23.40;67.50
75615;DHT22;64199;48.578;-4.520;2023-06-14T08:59:45;23.50;67.60
75615;DHT22;64199;48.578;-4.520;2023-06-14T09:02:13;23.40;67.60
75615;DHT22;64199;48.578;-4.520;2023-06-14T09:04:41;23.50;67.70
75615;DHT22;64199;48.578;-4.520;2023-06-14T09:07:07;23.50;67.70
75615;DHT22;64199;48.578;-4.520;2023-06-14T09:09:39;23.50;67.70
75615;DHT22;64199;48.578;-4.520;2023-06-14T09:12:08;23.50;67.70
75615;DHT22;64199;48.578;-4.520;2023-06-14T09:14:35;23.50;67.70
75615;DHT22;64199;48.578;-4.520;2023-06-14T09:17:04;23.50;67.70
75615;DHT22;64199;48.578;-4.520;2023-06-14T09:19:31;23.50;67.70
75615;DHT22;64199;48.578;-4.520;2023-06-14T09:21:58;23.50;67.70
75615;DHT22;64199;48.578;-4.520;2023-06-14T09:24:26;23.50;67.70
75615;DHT22;64199;48.578;-4.520;2023-06-14T09:26:53;23.50;67.80
75615;DHT22;64199;48.578;-4.520;2023-06-14T09:29:19;23.50;67.80
75615;DHT22;64199;48.578;-4.520;2023-06-14T09:31:48;23.50;67.80
75615;DHT22;64199;48.578;-4.520;2023-06-14T09:34:16;23.50;67.80
75615;DHT22;64199;48.578;-4.520;2023-06-14T09:36:43;23.50;67.80
75615;DHT22;64199;48.578;-4.520;2023-06-14T09:39:19;23.50;67.80
75615;DHT22;64199;48.578;-4.520;2023-06-14T09:41:46;23.50;67.80
75615;DHT22;64199;48.578;-4.520;2023-06-14T09:44:12;23.50;67.80
75615;DHT22;64199;48.578;-4.520;2023-06-14T09:46:38;23.50;67.80
75615;DHT22;64199;48.578;-4.520;2023-06-14T09:49:05;23.50;67.80
75615;DHT22;64199;48.578;-4.520;2023-06-14T09:51:32;23.50;67.80
75615;DHT22;64199;48.578;-4.520;2023-06-14T09:54:02;23.50;67.80
75615;DHT22;64199;48.578;-4.520;2023-06-14T09:56:41;23.50;67.70
75615;DHT22;64199;48.578;-4.520;2023-06-14T09:59:12;23.60;67.60
75615;DHT22;64199;48.578;-4.520;2023-06-14T10:01:47;23.50;67.60
75615;DHT22;64199;48.578;-4.520;2023-06-14T10:04:15;23.50;67.60
75615;DHT22;64199;48.578;-4.520;2023-06-14T10:06:46;23.50;67.60
75615;DHT22;64199;48.578;-4.520;2023-06-14T10:09:15;23.50;67.70
75615;DHT22;64199;48.578;-4.520;2023-06-14T10:11:43;23.50;68.50
75615;DHT22;64199;48.578;-4.520;2023-06-14T10:14:11;23.50;67.80
75615;DHT22;64199;48.578;-4.520;2023-06-14T10:17:11;23.50;67.70
75615;DHT22;64199;48.578;-4.520;2023-06-14T10:22:35;23.50;67.80
75615;DHT22;64199;48.578;-4.520;2023-06-14T10:25:13;23.60;67.80
75615;DHT22;64199;48.578;-4.520;2023-06-14T10:28:15;23.50;67.80
75615;DHT22;64199;48.578;-4.520;2023-06-14T10:31:03;23.60;67.80
75615;DHT22;64199;48.578;-4.520;2023-06-14T10:33:31;23.60;67.80
75615;DHT22;64199;48.578;-4.520;2023-06-14T10:36:24;23.50;67.80
75615;DHT22;64199;48.578;-4.520;2023-06-14T10:39:24;23.60;67.80
75615;DHT22;64199;48.578;-4.520;2023-06-14T10:42:04;23.60;67.90
75615;DHT22;64199;48.578;-4.520;2023-06-14T10:47:10;23.60;67.90
75615;DHT22;64199;48.578;-4.520;2023-06-14T10:49:38;23.60;67.80
75615;DHT22;64199;48.578;-4.520;2023-06-14T10:52:13;23.60;67.80
75615;DHT22;64199;48.578;-4.520;2023-06-14T10:55:17;23.60;67.80
75615;DHT22;64199;48.578;-4.520;2023-06-14T10:57:49;23.50;67.80
75615;DHT22;64199;48.578;-4.520;2023-06-14T11:00:27;23.60;67.80
75615;DHT22;64199;48.578;-4.520;2023-06-14T11:05:55;23.60;67.90
75615;DHT22;64199;48.578;-4.520;2023-06-14T11:11:07;23.60;67.70
75615;DHT22;64199;48.578;-4.520;2023-06-14T11:13:34;23.60;67.60
75615;DHT22;64199;48.578;-4.520;2023-06-14T11:16:00;23.60;67.50
75615;DHT22;64199;48.578;-4.520;2023-06-14T11:18:28;23.60;67.40
75615;DHT22;64199;48.578;-4.520;2023-06-14T11:20:54;23.60;67.30
75615;DHT22;64199;48.578;-4.520;2023-06-14T11:23:21;23.70;67.30
75615;DHT22;64199;48.578;-4.520;2023-06-14T11:25:52;23.60;67.20
75615;DHT22;64199;48.578;-4.520;2023-06-14T11:28:18;23.60;67.10
75615;DHT22;64199;48.578;-4.520;2023-06-14T11:30:59;23.60;67.10
75615;DHT22;64199;48.578;-4.520;2023-06-14T11:33:26;23.60;67.10
75615;DHT22;64199;48.578;-4.520;2023-06-14T11:35:52;23.60;67.00
75615;DHT22;64199;48.578;-4.520;2023-06-14T11:38:18;23.60;66.90
75615;DHT22;64199;48.578;-4.520;2023-06-14T11:40:44;23.60;66.90
75615;DHT22;64199;48.578;-4.520;2023-06-14T11:43:11;23.60;66.90
75615;DHT22;64199;48.578;-4.520;2023-06-14T11:45:39;23.60;66.90
75615;DHT22;64199;48.578;-4.520;2023-06-14T11:48:07;23.60;67.10
75615;DHT22;64199;48.578;-4.520;2023-06-14T11:50:38;23.60;67.10
75615;DHT22;64199;48.578;-4.520;2023-06-14T11:53:04;23.60;67.10
75615;DHT22;64199;48.578;-4.520;2023-06-14T11:55:40;23.60;67.10
75615;DHT22;64199;48.578;-4.520;2023-06-14T11:58:07;23.60;67.00
75615;DHT22;64199;48.578;-4.520;2023-06-14T12:00:35;23.50;66.90
75615;DHT22;64199;48.578;-4.520;2023-06-14T12:03:03;23.60;67.10
75615;DHT22;64199;48.578;-4.520;2023-06-14T12:05:29;23.60;67.10
75615;DHT22;64199;48.578;-4.520;2023-06-14T12:08:01;23.60;67.10
75615;DHT22;64199;48.578;-4.520;2023-06-14T12:10:28;23.60;67.10
75615;DHT22;64199;48.578;-4.520;2023-06-14T12:12:59;23.50;67.10
75615;DHT22;64199;48.578;-4.520;2023-06-14T12:15:29;23.60;67.10
75615;DHT22;64199;48.578;-4.520;2023-06-14T12:17:58;23.50;66.90
75615;DHT22;64199;48.578;-4.520;2023-06-14T12:20:29;23.50;66.90
75615;DHT22;64199;48.578;-4.520;2023-06-14T12:22:58;23.50;66.90
75615;DHT22;64199;48.578;-4.520;2023-06-14T12:25:33;23.50;66.80
75615;DHT22;64199;48.578;-4.520;2023-06-14T12:28:04;23.50;66.70
75615;DHT22;64199;48.578;-4.520;2023-06-14T12:30:32;23.50;66.70
75615;DHT22;64199;48.578;-4.520;2023-06-14T12:33:02;23.50;66.70
75615;DHT22;64199;48.578;-4.520;2023-06-14T12:35:28;23.50;66.60
75615;DHT22;64199;48.578;-4.520;2023-06-14T12:37:55;23.50;66.60
75615;DHT22;64199;48.578;-4.520;2023-06-14T12:40:22;23.50;66.60
75615;DHT22;64199;48.578;-4.520;2023-06-14T12:42:48;23.50;66.60
75615;DHT22;64199;48.578;-4.520;2023-06-14T12:45:14;23.50;66.60
75615;DHT22;64199;48.578;-4.520;2023-06-14T12:47:41;23.50;66.50
75615;DHT22;64199;48.578;-4.520;2023-06-14T12:50:07;23.50;66.50
75615;DHT22;64199;48.578;-4.520;2023-06-14T12:52:33;23.50;66.50
75615;DHT22;64199;48.578;-4.520;2023-06-14T12:55:04;23.50;66.50
75615;DHT22;64199;48.578;-4.520;2023-06-14T12:57:30;23.50;67.30
75615;DHT22;64199;48.578;-4.520;2023-06-14T12:59:56;23.50;66.50
75615;DHT22;64199;48.578;-4.520;2023-06-14T13:02:22;23.50;66.50
75615;DHT22;64199;48.578;-4.520;2023-06-14T13:04:50;23.50;66.40
75615;DHT22;64199;48.578;-4.520;2023-06-14T13:07:16;23.50;66.40
75615;DHT22;64199;48.578;-4.520;2023-06-14T13:09:45;23.40;66.30
75615;DHT22;64199;48.578;-4.520;2023-06-14T13:12:12;23.50;66.40
75615;DHT22;64199;48.578;-4.520;2023-06-14T13:14:38;23.40;66.30
75615;DHT22;64199;48.578;-4.520;2023-06-14T13:17:11;23.40;66.30
75615;DHT22;64199;48.578;-4.520;2023-06-14T13:19:38;23.50;66.30
75615;DHT22;64199;48.578;-4.520;2023-06-14T13:22:04;23.50;66.30
75615;DHT22;64199;48.578;-4.520;2023-06-14T13:24:30;23.40;66.20
75615;DHT22;64199;48.578;-4.520;2023-06-14T13:26:57;23.40;66.20
75615;DHT22;64199;48.578;-4.520;2023-06-14T13:29:29;23.40;66.30
75615;DHT22;64199;48.578;-4.520;2023-06-14T13:31:56;23.40;66.20
75615;DHT22;64199;48.578;-4.520;2023-06-14T13:34:22;23.40;66.20
75615;DHT22;64199;48.578;-4.520;2023-06-14T13:36:49;23.40;66.20
75615;DHT22;64199;48.578;-4.520;2023-06-14T13:39:16;23.40;66.20
75615;DHT22;64199;48.578;-4.520;2023-06-14T13:41:46;23.40;66.20
75615;DHT22;64199;48.578;-4.520;2023-06-14T13:44:15;23.40;66.30
75615;DHT22;64199;48.578;-4.520;2023-06-14T13:46:44;23.40;66.10
75615;DHT22;64199;48.578;-4.520;2023-06-14T13:49:11;23.40;66.20
75615;DHT22;64199;48.578;-4.520;2023-06-14T13:51:38;23.40;66.20
75615;DHT22;64199;48.578;-4.520;2023-06-14T13:54:05;23.40;66.20
75615;DHT22;64199;48.578;-4.520;2023-06-14T13:56:31;23.40;66.10
75615;DHT22;64199;48.578;-4.520;2023-06-14T13:59:01;23.40;66.10
75615;DHT22;64199;48.578;-4.520;2023-06-14T14:01:30;23.40;66.10
75615;DHT22;64199;48.578;-4.520;2023-06-14T14:03:57;23.40;66.10
75615;DHT22;64199;48.578;-4.520;2023-06-14T14:06:24;23.40;66.10
75615;DHT22;64199;48.578;-4.520;2023-06-14T14:08:50;23.40;66.10
75615;DHT22;64199;48.578;-4.520;2023-06-14T14:11:19;23.40;66.20
75615;DHT22;64199;48.578;-4.520;2023-06-14T14:13:46;23.40;66.20
75615;DHT22;64199;48.578;-4.520;2023-06-14T14:16:21;23.40;66.20
75615;DHT22;64199;48.578;-4.520;2023-06-14T14:18:49;23.40;66.20
75615;DHT22;64199;48.578;-4.520;2023-06-14T14:21:16;23.40;66.20
75615;DHT22;64199;48.578;-4.520;2023-06-14T14:23:46;23.40;66.20
75615;DHT22;64199;48.578;-4.520;2023-06-14T14:26:13;23.40;66.20
75615;DHT22;64199;48.578;-4.520;2023-06-14T14:28:39;23.40;66.20
75615;DHT22;64199;48.578;-4.520;2023-06-14T14:31:06;23.40;66.10
75615;DHT22;64199;48.578;-4.520;2023-06-14T14:33:32;23.40;66.20
75615;DHT22;64199;48.578;-4.520;2023-06-14T14:36:03;23.40;66.10
75615;DHT22;64199;48.578;-4.520;2023-06-14T14:38:30;23.40;66.10
75615;DHT22;64199;48.578;-4.520;2023-06-14T14:40:57;23.40;66.10
75615;DHT22;64199;48.578;-4.520;2023-06-14T14:43:24;23.40;66.10
75615;DHT22;64199;48.578;-4.520;2023-06-14T14:45:50;23.40;66.10
75615;DHT22;64199;48.578;-4.520;2023-06-14T14:48:16;23.40;66.10
75615;DHT22;64199;48.578;-4.520;2023-06-14T14:50:42;23.40;66.10
75615;DHT22;64199;48.578;-4.520;2023-06-14T14:53:08;23.40;66.10
75615;DHT22;64199;48.578;-4.520;2023-06-14T14:55:34;23.40;66.10
75615;DHT22;64199;48.578;-4.520;2023-06-14T14:58:03;23.40;66.10
75615;DHT22;64199;48.578;-4.520;2023-06-14T15:00:29;23.40;66.10
75615;DHT22;64199;48.578;-4.520;2023-06-14T15:03:01;23.40;66.00
75615;DHT22;64199;48.578;-4.520;2023-06-14T15:05:31;23.40;66.00
75615;DHT22;64199;48.578;-4.520;2023-06-14T15:07:57;23.40;66.00
75615;DHT22;64199;48.578;-4.520;2023-06-14T15:10:23;23.40;66.00
75615;DHT22;64199;48.578;-4.520;2023-06-14T15:12:50;23.40;66.00
75615;DHT22;64199;48.578;-4.520;2023-06-14T15:15:16;23.40;66.10
75615;DHT22;64199;48.578;-4.520;2023-06-14T15:17:42;23.50;66.10
75615;DHT22;64199;48.578;-4.520;2023-06-14T15:20:14;23.40;66.00
75615;DHT22;64199;48.578;-4.520;2023-06-14T15:22:41;23.40;65.90
75615;DHT22;64199;48.578;-4.520;2023-06-14T15:25:10;23.40;65.90
75615;DHT22;64199;48.578;-4.520;2023-06-14T15:27:37;23.40;65.90
75615;DHT22;64199;48.578;-4.520;2023-06-14T15:30:03;23.40;65.90
75615;DHT22;64199;48.578;-4.520;2023-06-14T15:32:30;23.40;65.90
75615;DHT22;64199;48.578;-4.520;2023-06-14T15:34:56;23.40;65.90